RYR6DB BIKF-EDDC
Flight info
| Callsign | RYR6DB |
|---|---|
| Flight time | N/A |
| Altitude | 35000 |
| Route | DRN |
| Aircraft | B738/M-SDE2E3FGHIRWXY/LB1 |
Departure
| Time | N/A |
|---|---|
| Airport | Keflavik International Airport (BIKF) |
Arrival
| Time | 2026-05-04 19:08 |
|---|---|
| Airport | Dresden Airport (EDDC) |
| Time | Latitude | Longitude | Altitude | Speed | Heading |
|---|---|---|---|---|---|
| 2026-05-04 18:55 | 50.90462 | 14.02645 | 14776 ft | 394 kts | 315° |
| 2026-05-04 18:55 | 50.92503 | 13.99767 | 14362 ft | 392 kts | 315° |
| 2026-05-04 18:56 | 50.94536 | 13.96909 | 13967 ft | 390 kts | 315° |
| 2026-05-04 18:56 | 50.96527 | 13.94131 | 13549 ft | 387 kts | 317° |
| 2026-05-04 18:56 | 50.98813 | 13.91927 | 13074 ft | 385 kts | 336° |
| 2026-05-04 18:56 | 51.01410 | 13.91088 | 12638 ft | 383 kts | 356° |
| 2026-05-04 18:57 | 51.03829 | 13.91596 | 12227 ft | 381 kts | 15° |
| 2026-05-04 18:57 | 51.06189 | 13.93468 | 11805 ft | 377 kts | 34° |
| 2026-05-04 18:57 | 51.08209 | 13.95990 | 11397 ft | 371 kts | 39° |
| 2026-05-04 18:57 | 51.10160 | 13.98622 | 10974 ft | 365 kts | 39° |
| 2026-05-04 18:58 | 51.12067 | 14.01237 | 10553 ft | 360 kts | 40° |
| 2026-05-04 18:58 | 51.13948 | 14.03836 | 10145 ft | 355 kts | 40° |
| 2026-05-04 18:58 | 51.15796 | 14.06400 | 9730 ft | 351 kts | 40° |
| 2026-05-04 18:58 | 51.17628 | 14.08945 | 9282 ft | 347 kts | 40° |
| 2026-05-04 18:59 | 51.19438 | 14.11459 | 8838 ft | 343 kts | 40° |
| 2026-05-04 18:59 | 51.21231 | 14.13943 | 8406 ft | 340 kts | 40° |
| 2026-05-04 18:59 | 51.23013 | 14.16402 | 7976 ft | 336 kts | 40° |
| 2026-05-04 18:59 | 51.24776 | 14.18827 | 7555 ft | 333 kts | 40° |
| 2026-05-04 19:00 | 51.26543 | 14.21191 | 7126 ft | 330 kts | 34° |
| 2026-05-04 19:00 | 51.28576 | 14.22680 | 6705 ft | 326 kts | 11° |
| 2026-05-04 19:00 | 51.30802 | 14.22784 | 6299 ft | 316 kts | 347° |
| 2026-05-04 19:00 | 51.32783 | 14.21512 | 5857 ft | 301 kts | 323° |
| 2026-05-04 19:01 | 51.34173 | 14.19153 | 5416 ft | 288 kts | 298° |
| 2026-05-04 19:01 | 51.34754 | 14.16185 | 4996 ft | 277 kts | 272° |
| 2026-05-04 19:01 | 51.34544 | 14.13183 | 4594 ft | 269 kts | 257° |
| 2026-05-04 19:01 | 51.34119 | 14.10296 | 4168 ft | 265 kts | 256° |
| 2026-05-04 19:02 | 51.33676 | 14.07457 | 4037 ft | 265 kts | 256° |
| 2026-05-04 19:02 | 51.33130 | 14.04673 | 3981 ft | 260 kts | 239° |
| 2026-05-04 19:02 | 51.31991 | 14.02502 | 4017 ft | 254 kts | 225° |
| 2026-05-04 19:02 | 51.30696 | 14.00593 | 3860 ft | 255 kts | 221° |
| 2026-05-04 19:03 | 51.29344 | 13.98753 | 3555 ft | 254 kts | 220° |
| 2026-05-04 19:03 | 51.28007 | 13.96925 | 3232 ft | 251 kts | 221° |
| 2026-05-04 19:03 | 51.26714 | 13.95124 | 3035 ft | 247 kts | 222° |
| 2026-05-04 19:03 | 51.25456 | 13.93357 | 2990 ft | 233 kts | 221° |
| 2026-05-04 19:04 | 51.24286 | 13.91772 | 2981 ft | 207 kts | 221° |
| 2026-05-04 19:04 | 51.23261 | 13.90360 | 2938 ft | 183 kts | 221° |
| 2026-05-04 19:04 | 51.22361 | 13.89090 | 2684 ft | 163 kts | 222° |
| 2026-05-04 19:04 | 51.21572 | 13.87971 | 2451 ft | 142 kts | 222° |
| 2026-05-04 19:05 | 51.20861 | 13.86957 | 2141 ft | 133 kts | 223° |
| 2026-05-04 19:05 | 51.20148 | 13.85956 | 1955 ft | 141 kts | 224° |
| 2026-05-04 19:05 | 51.19436 | 13.85072 | 1900 ft | 143 kts | 225° |
| 2026-05-04 19:05 | 51.18670 | 13.83983 | 1697 ft | 150 kts | 224° |
| 2026-05-04 19:06 | 51.17880 | 13.82925 | 1491 ft | 147 kts | 223° |
| 2026-05-04 19:06 | 51.17120 | 13.81885 | 1312 ft | 146 kts | 225° |
| 2026-05-04 19:06 | 51.16367 | 13.80816 | 1198 ft | 146 kts | 227° |
| 2026-05-04 19:06 | 51.15595 | 13.79772 | 1082 ft | 143 kts | 224° |
| 2026-05-04 19:07 | 51.14852 | 13.78743 | 895 ft | 141 kts | 224° |
| 2026-05-04 19:07 | 51.14113 | 13.77730 | 731 ft | 135 kts | 221° |
| 2026-05-04 19:07 | 51.13679 | 13.77130 | 728 ft | 115 kts | 220° |
| 2026-05-04 19:07 | 51.13153 | 13.76413 | 740 ft | 93 kts | 220° |
| 2026-05-04 19:08 | 51.12793 | 13.75918 | 750 ft | 26 kts | 221° |
| 2026-05-04 19:08 | 51.12668 | 13.75897 | 750 ft | 20 kts | 135° |
| 2026-05-04 19:08 | 51.12599 | 13.76019 | 750 ft | 7 kts | 129° |
| 2026-05-04 19:08 | 51.12588 | 13.76093 | 751 ft | 7 kts | 72° |
| 2026-05-04 19:09 | 51.12614 | 13.76146 | 752 ft | 10 kts | 45° |
| 2026-05-04 19:09 | 51.12707 | 13.76276 | 746 ft | 26 kts | 40° |
| 2026-05-04 19:09 | 51.12777 | 13.76481 | 745 ft | 18 kts | 126° |
| 2026-05-04 19:09 | 51.12703 | 13.76616 | 748 ft | 10 kts | 143° |
| 2026-05-04 19:10 | 51.12673 | 13.76609 | 750 ft | 4 kts | 222° |
| 2026-05-04 19:10 | 51.12650 | 13.76573 | 752 ft | 6 kts | 223° |
| 2026-05-04 19:10 | 51.12628 | 13.76543 | 750 ft | 0 kts | 220° |